sensor_id;sensor_type;location;lat;lon;timestamp;P1;durP1;ratioP1;P2;durP2;ratioP2
11113;SDS011;5610;52.154;9.198;2023-09-19T00:02:38;2.80;;;2.07;;
11113;SDS011;5610;52.154;9.198;2023-09-19T00:05:24;3.63;;;2.70;;
11113;SDS011;5610;52.154;9.198;2023-09-19T00:08:11;4.43;;;3.00;;
11113;SDS011;5610;52.154;9.198;2023-09-19T00:10:58;4.53;;;2.97;;
11113;SDS011;5610;52.154;9.198;2023-09-19T00:13:47;3.90;;;3.23;;
11113;SDS011;5610;52.154;9.198;2023-09-19T00:16:34;6.47;;;3.73;;
11113;SDS011;5610;52.154;9.198;2023-09-19T00:19:21;4.57;;;4.07;;
11113;SDS011;5610;52.154;9.198;2023-09-19T00:22:06;6.00;;;3.93;;
11113;SDS011;5610;52.154;9.198;2023-09-19T00:24:51;7.50;;;4.40;;
11113;SDS011;5610;52.154;9.198;2023-09-19T00:27:37;6.40;;;5.13;;
11113;SDS011;5610;52.154;9.198;2023-09-19T00:30:25;6.27;;;4.90;;
11113;SDS011;5610;52.154;9.198;2023-09-19T00:33:10;5.63;;;5.10;;
11113;SDS011;5610;52.154;9.198;2023-09-19T00:36:01;7.20;;;5.87;;
11113;SDS011;5610;52.154;9.198;2023-09-19T00:38:48;5.63;;;5.13;;
11113;SDS011;5610;52.154;9.198;2023-09-19T00:41:33;9.47;;;4.87;;
11113;SDS011;5610;52.154;9.198;2023-09-19T00:44:20;5.60;;;5.10;;
11113;SDS011;5610;52.154;9.198;2023-09-19T00:47:07;6.97;;;5.50;;
11113;SDS011;5610;52.154;9.198;2023-09-19T00:49:53;7.10;;;4.40;;
11113;SDS011;5610;52.154;9.198;2023-09-19T00:52:39;6.30;;;5.10;;
11113;SDS011;5610;52.154;9.198;2023-09-19T00:55:27;8.10;;;5.03;;
11113;SDS011;5610;52.154;9.198;2023-09-19T00:58:16;8.70;;;5.50;;
11113;SDS011;5610;52.154;9.198;2023-09-19T01:01:03;8.00;;;5.53;;
11113;SDS011;5610;52.154;9.198;2023-09-19T01:03:53;6.20;;;4.67;;
11113;SDS011;5610;52.154;9.198;2023-09-19T01:06:38;5.30;;;4.50;;
11113;SDS011;5610;52.154;9.198;2023-09-19T01:09:25;4.43;;;4.00;;
11113;SDS011;5610;52.154;9.198;2023-09-19T01:12:11;6.00;;;4.83;;
11113;SDS011;5610;52.154;9.198;2023-09-19T01:15:02;7.20;;;3.90;;
11113;SDS011;5610;52.154;9.198;2023-09-19T01:17:57;8.40;;;4.40;;
11113;SDS011;5610;52.154;9.198;2023-09-19T01:20:51;6.80;;;4.40;;
11113;SDS011;5610;52.154;9.198;2023-09-19T01:23:48;6.00;;;4.03;;
11113;SDS011;5610;52.154;9.198;2023-09-19T01:27:01;9.90;;;4.80;;
11113;SDS011;5610;52.154;9.198;2023-09-19T01:30:08;5.80;;;4.67;;
11113;SDS011;5610;52.154;9.198;2023-09-19T01:32:55;7.20;;;4.90;;
11113;SDS011;5610;52.154;9.198;2023-09-19T01:35:41;7.40;;;5.50;;
11113;SDS011;5610;52.154;9.198;2023-09-19T01:38:27;6.00;;;5.20;;
11113;SDS011;5610;52.154;9.198;2023-09-19T01:41:13;9.33;;;5.33;;
11113;SDS011;5610;52.154;9.198;2023-09-19T01:44:06;9.77;;;5.17;;
11113;SDS011;5610;52.154;9.198;2023-09-19T01:46:58;8.80;;;6.20;;
11113;SDS011;5610;52.154;9.198;2023-09-19T01:49:50;7.63;;;5.40;;
11113;SDS011;5610;52.154;9.198;2023-09-19T01:52:46;8.40;;;6.90;;
11113;SDS011;5610;52.154;9.198;2023-09-19T01:55:35;9.73;;;6.77;;
11113;SDS011;5610;52.154;9.198;2023-09-19T01:58:27;8.03;;;6.80;;
11113;SDS011;5610;52.154;9.198;2023-09-19T02:01:19;8.40;;;6.50;;
11113;SDS011;5610;52.154;9.198;2023-09-19T02:04:08;9.50;;;6.87;;
11113;SDS011;5610;52.154;9.198;2023-09-19T02:06:54;8.13;;;6.17;;
11113;SDS011;5610;52.154;9.198;2023-09-19T02:09:39;9.83;;;6.67;;
11113;SDS011;5610;52.154;9.198;2023-09-19T02:12:26;7.27;;;6.27;;
11113;SDS011;5610;52.154;9.198;2023-09-19T02:15:12;6.87;;;6.27;;
11113;SDS011;5610;52.154;9.198;2023-09-19T02:17:59;10.37;;;7.77;;
11113;SDS011;5610;52.154;9.198;2023-09-19T02:20:45;8.70;;;6.60;;
11113;SDS011;5610;52.154;9.198;2023-09-19T02:23:31;7.90;;;6.67;;
11113;SDS011;5610;52.154;9.198;2023-09-19T02:26:17;8.47;;;7.37;;
11113;SDS011;5610;52.154;9.198;2023-09-19T02:29:03;7.80;;;6.37;;
11113;SDS011;5610;52.154;9.198;2023-09-19T02:31:48;8.03;;;7.07;;
11113;SDS011;5610;52.154;9.198;2023-09-19T02:34:34;8.27;;;7.50;;
11113;SDS011;5610;52.154;9.198;2023-09-19T02:37:21;11.60;;;6.70;;
11113;SDS011;5610;52.154;9.198;2023-09-19T02:40:07;9.67;;;6.60;;
11113;SDS011;5610;52.154;9.198;2023-09-19T02:43:02;8.47;;;6.73;;
11113;SDS011;5610;52.154;9.198;2023-09-19T02:45:48;12.60;;;6.57;;
11113;SDS011;5610;52.154;9.198;2023-09-19T02:48:34;7.27;;;6.03;;
11113;SDS011;5610;52.154;9.198;2023-09-19T02:51:20;10.37;;;6.80;;
11113;SDS011;5610;52.154;9.198;2023-09-19T02:54:07;11.97;;;6.83;;
11113;SDS011;5610;52.154;9.198;2023-09-19T02:56:53;7.10;;;6.10;;
11113;SDS011;5610;52.154;9.198;2023-09-19T02:59:39;7.87;;;6.47;;
11113;SDS011;5610;52.154;9.198;2023-09-19T03:02:26;12.20;;;6.70;;
11113;SDS011;5610;52.154;9.198;2023-09-19T03:05:12;10.20;;;7.43;;
11113;SDS011;5610;52.154;9.198;2023-09-19T03:07:57;9.73;;;7.80;;
11113;SDS011;5610;52.154;9.198;2023-09-19T03:10:47;10.60;;;7.23;;
11113;SDS011;5610;52.154;9.198;2023-09-19T03:13:32;9.50;;;8.03;;
11113;SDS011;5610;52.154;9.198;2023-09-19T03:16:18;8.80;;;7.50;;
11113;SDS011;5610;52.154;9.198;2023-09-19T03:19:05;13.70;;;8.77;;
11113;SDS011;5610;52.154;9.198;2023-09-19T03:21:51;8.00;;;6.70;;
11113;SDS011;5610;52.154;9.198;2023-09-19T03:24:37;9.73;;;8.00;;
11113;SDS011;5610;52.154;9.198;2023-09-19T03:27:25;10.40;;;7.80;;
11113;SDS011;5610;52.154;9.198;2023-09-19T03:30:11;12.80;;;7.43;;
11113;SDS011;5610;52.154;9.198;2023-09-19T03:32:58;10.60;;;7.70;;
11113;SDS011;5610;52.154;9.198;2023-09-19T03:35:45;9.90;;;7.17;;
11113;SDS011;5610;52.154;9.198;2023-09-19T03:38:37;9.87;;;7.37;;
11113;SDS011;5610;52.154;9.198;2023-09-19T03:41:22;10.53;;;6.90;;
11113;SDS011;5610;52.154;9.198;2023-09-19T03:44:08;8.80;;;7.50;;
11113;SDS011;5610;52.154;9.198;2023-09-19T03:46:53;8.93;;;6.80;;
11113;SDS011;5610;52.154;9.198;2023-09-19T03:49:40;10.87;;;7.60;;
11113;SDS011;5610;52.154;9.198;2023-09-19T03:52:25;8.83;;;7.40;;
11113;SDS011;5610;52.154;9.198;2023-09-19T03:55:10;12.27;;;7.43;;
11113;SDS011;5610;52.154;9.198;2023-09-19T03:57:56;13.37;;;8.57;;
11113;SDS011;5610;52.154;9.198;2023-09-19T04:00:43;11.50;;;7.80;;
11113;SDS011;5610;52.154;9.198;2023-09-19T04:03:29;13.57;;;7.20;;
11113;SDS011;5610;52.154;9.198;2023-09-19T04:06:18;13.17;;;7.00;;
11113;SDS011;5610;52.154;9.198;2023-09-19T04:09:04;9.90;;;7.40;;
11113;SDS011;5610;52.154;9.198;2023-09-19T04:11:50;10.50;;;7.90;;
11113;SDS011;5610;52.154;9.198;2023-09-19T04:14:36;10.10;;;6.67;;
11113;SDS011;5610;52.154;9.198;2023-09-19T04:17:22;10.10;;;7.53;;
11113;SDS011;5610;52.154;9.198;2023-09-19T04:20:08;13.80;;;8.00;;
11113;SDS011;5610;52.154;9.198;2023-09-19T04:22:56;8.80;;;7.53;;
11113;SDS011;5610;52.154;9.198;2023-09-19T04:25:41;13.90;;;8.13;;
11113;SDS011;5610;52.154;9.198;2023-09-19T04:28:26;11.33;;;8.50;;
11113;SDS011;5610;52.154;9.198;2023-09-19T04:31:12;11.87;;;8.30;;
11113;SDS011;5610;52.154;9.198;2023-09-19T04:33:59;12.53;;;7.83;;
11113;SDS011;5610;52.154;9.198;2023-09-19T04:36:48;7.90;;;7.10;;
11113;SDS011;5610;52.154;9.198;2023-09-19T04:39:33;14.47;;;8.30;;
11113;SDS011;5610;52.154;9.198;2023-09-19T04:42:18;10.33;;;7.50;;
11113;SDS011;5610;52.154;9.198;2023-09-19T04:45:04;10.83;;;8.00;;
11113;SDS011;5610;52.154;9.198;2023-09-19T04:47:50;12.60;;;7.50;;
11113;SDS011;5610;52.154;9.198;2023-09-19T04:50:37;15.17;;;7.90;;
11113;SDS011;5610;52.154;9.198;2023-09-19T04:53:22;11.93;;;6.90;;
11113;SDS011;5610;52.154;9.198;2023-09-19T04:56:07;11.70;;;7.27;;
11113;SDS011;5610;52.154;9.198;2023-09-19T04:58:52;12.90;;;6.63;;
11113;SDS011;5610;52.154;9.198;2023-09-19T05:01:37;10.90;;;6.67;;
11113;SDS011;5610;52.154;9.198;2023-09-19T05:04:22;14.03;;;6.53;;
11113;SDS011;5610;52.154;9.198;2023-09-19T05:07:09;10.00;;;6.53;;
11113;SDS011;5610;52.154;9.198;2023-09-19T05:09:55;10.03;;;5.70;;
11113;SDS011;5610;52.154;9.198;2023-09-19T05:12:40;8.30;;;5.10;;
11113;SDS011;5610;52.154;9.198;2023-09-19T05:15:27;8.40;;;5.17;;
11113;SDS011;5610;52.154;9.198;2023-09-19T05:18:12;9.73;;;4.80;;
11113;SDS011;5610;52.154;9.198;2023-09-19T05:20:57;13.87;;;5.73;;
11113;SDS011;5610;52.154;9.198;2023-09-19T05:23:43;10.37;;;5.60;;
11113;SDS011;5610;52.154;9.198;2023-09-19T05:26:29;13.50;;;5.83;;
11113;SDS011;5610;52.154;9.198;2023-09-19T05:29:15;9.60;;;4.87;;
11113;SDS011;5610;52.154;9.198;2023-09-19T05:32:00;11.70;;;5.00;;
11113;SDS011;5610;52.154;9.198;2023-09-19T05:34:45;9.73;;;5.77;;
11113;SDS011;5610;52.154;9.198;2023-09-19T05:37:30;12.93;;;6.23;;
11113;SDS011;5610;52.154;9.198;2023-09-19T05:40:17;13.17;;;5.60;;
11113;SDS011;5610;52.154;9.198;2023-09-19T05:43:02;8.60;;;5.30;;
11113;SDS011;5610;52.154;9.198;2023-09-19T05:45:49;15.33;;;5.87;;
11113;SDS011;5610;52.154;9.198;2023-09-19T05:48:35;9.40;;;4.90;;
11113;SDS011;5610;52.154;9.198;2023-09-19T05:51:22;12.90;;;5.63;;
11113;SDS011;5610;52.154;9.198;2023-09-19T05:54:08;9.63;;;4.83;;
11113;SDS011;5610;52.154;9.198;2023-09-19T05:56:56;12.20;;;5.20;;
11113;SDS011;5610;52.154;9.198;2023-09-19T05:59:41;10.97;;;4.73;;
11113;SDS011;5610;52.154;9.198;2023-09-19T06:02:27;10.30;;;4.57;;
11113;SDS011;5610;52.154;9.198;2023-09-19T06:05:13;9.43;;;4.37;;
11113;SDS011;5610;52.154;9.198;2023-09-19T06:07:58;10.10;;;4.47;;
11113;SDS011;5610;52.154;9.198;2023-09-19T06:10:45;14.43;;;3.83;;
11113;SDS011;5610;52.154;9.198;2023-09-19T06:13:32;8.40;;;4.20;;
11113;SDS011;5610;52.154;9.198;2023-09-19T06:16:17;7.97;;;3.77;;
11113;SDS011;5610;52.154;9.198;2023-09-19T06:19:03;6.53;;;3.40;;
11113;SDS011;5610;52.154;9.198;2023-09-19T06:21:50;11.30;;;4.00;;
11113;SDS011;5610;52.154;9.198;2023-09-19T06:24:35;10.70;;;3.70;;
11113;SDS011;5610;52.154;9.198;2023-09-19T06:27:20;9.40;;;2.57;;
11113;SDS011;5610;52.154;9.198;2023-09-19T06:30:07;12.40;;;3.80;;
11113;SDS011;5610;52.154;9.198;2023-09-19T06:32:55;7.17;;;3.60;;
11113;SDS011;5610;52.154;9.198;2023-09-19T06:35:40;13.60;;;3.20;;
11113;SDS011;5610;52.154;9.198;2023-09-19T06:38:26;9.97;;;3.73;;
11113;SDS011;5610;52.154;9.198;2023-09-19T06:41:12;8.50;;;3.40;;
11113;SDS011;5610;52.154;9.198;2023-09-19T06:43:58;7.53;;;2.90;;
11113;SDS011;5610;52.154;9.198;2023-09-19T06:46:44;12.90;;;3.70;;
11113;SDS011;5610;52.154;9.198;2023-09-19T06:49:33;8.87;;;3.33;;
11113;SDS011;5610;52.154;9.198;2023-09-19T06:52:19;9.07;;;3.00;;
11113;SDS011;5610;52.154;9.198;2023-09-19T06:55:06;11.47;;;3.63;;
11113;SDS011;5610;52.154;9.198;2023-09-19T06:57:51;11.87;;;3.63;;
11113;SDS011;5610;52.154;9.198;2023-09-19T07:00:37;14.00;;;3.37;;
11113;SDS011;5610;52.154;9.198;2023-09-19T07:03:24;8.40;;;2.80;;
11113;SDS011;5610;52.154;9.198;2023-09-19T07:06:12;12.13;;;2.90;;
11113;SDS011;5610;52.154;9.198;2023-09-19T07:08:57;10.17;;;2.93;;
11113;SDS011;5610;52.154;9.198;2023-09-19T07:11:42;8.57;;;2.70;;
11113;SDS011;5610;52.154;9.198;2023-09-19T07:14:28;6.10;;;2.47;;
11113;SDS011;5610;52.154;9.198;2023-09-19T07:17:13;6.60;;;2.30;;
11113;SDS011;5610;52.154;9.198;2023-09-19T07:20:02;6.77;;;2.70;;
11113;SDS011;5610;52.154;9.198;2023-09-19T07:22:51;7.00;;;2.20;;
11113;SDS011;5610;52.154;9.198;2023-09-19T07:25:38;10.53;;;3.20;;
11113;SDS011;5610;52.154;9.198;2023-09-19T07:28:24;11.20;;;3.17;;
11113;SDS011;5610;52.154;9.198;2023-09-19T07:31:09;13.10;;;3.13;;
11113;SDS011;5610;52.154;9.198;2023-09-19T07:33:54;8.60;;;2.80;;
11113;SDS011;5610;52.154;9.198;2023-09-19T07:36:40;8.27;;;2.67;;
11113;SDS011;5610;52.154;9.198;2023-09-19T07:39:26;6.80;;;3.00;;
11113;SDS011;5610;52.154;9.198;2023-09-19T07:42:11;7.67;;;2.83;;
11113;SDS011;5610;52.154;9.198;2023-09-19T07:45:01;6.33;;;2.90;;
11113;SDS011;5610;52.154;9.198;2023-09-19T07:47:47;8.60;;;2.83;;
11113;SDS011;5610;52.154;9.198;2023-09-19T07:50:33;8.60;;;2.90;;
11113;SDS011;5610;52.154;9.198;2023-09-19T07:53:21;7.60;;;2.70;;
11113;SDS011;5610;52.154;9.198;2023-09-19T07:56:07;6.00;;;2.73;;
11113;SDS011;5610;52.154;9.198;2023-09-19T07:58:54;7.07;;;2.73;;
11113;SDS011;5610;52.154;9.198;2023-09-19T08:01:41;8.33;;;2.90;;
11113;SDS011;5610;52.154;9.198;2023-09-19T08:04:27;7.67;;;2.73;;
11113;SDS011;5610;52.154;9.198;2023-09-19T08:07:14;9.90;;;2.87;;
11113;SDS011;5610;52.154;9.198;2023-09-19T08:10:01;8.83;;;2.93;;
11113;SDS011;5610;52.154;9.198;2023-09-19T08:12:47;12.30;;;3.17;;
11113;SDS011;5610;52.154;9.198;2023-09-19T08:15:42;9.50;;;2.60;;
11113;SDS011;5610;52.154;9.198;2023-09-19T08:18:28;9.77;;;2.90;;
11113;SDS011;5610;52.154;9.198;2023-09-19T08:21:13;11.73;;;2.90;;
11113;SDS011;5610;52.154;9.198;2023-09-19T08:23:59;9.30;;;3.30;;
11113;SDS011;5610;52.154;9.198;2023-09-19T08:26:46;8.83;;;2.73;;
11113;SDS011;5610;52.154;9.198;2023-09-19T08:29:31;12.17;;;3.37;;
11113;SDS011;5610;52.154;9.198;2023-09-19T08:32:16;9.33;;;2.80;;
11113;SDS011;5610;52.154;9.198;2023-09-19T08:35:02;5.10;;;3.00;;
11113;SDS011;5610;52.154;9.198;2023-09-19T08:37:48;11.10;;;3.10;;
11113;SDS011;5610;52.154;9.198;2023-09-19T08:40:33;10.00;;;3.00;;
11113;SDS011;5610;52.154;9.198;2023-09-19T08:43:24;9.43;;;2.67;;
11113;SDS011;5610;52.154;9.198;2023-09-19T08:46:10;5.87;;;2.50;;
11113;SDS011;5610;52.154;9.198;2023-09-19T08:49:02;7.80;;;2.83;;
11113;SDS011;5610;52.154;9.198;2023-09-19T08:51:51;5.70;;;2.43;;
11113;SDS011;5610;52.154;9.198;2023-09-19T08:54:46;5.50;;;2.50;;
11113;SDS011;5610;52.154;9.198;2023-09-19T08:57:34;6.63;;;2.27;;
11113;SDS011;5610;52.154;9.198;2023-09-19T09:00:24;7.47;;;2.70;;
11113;SDS011;5610;52.154;9.198;2023-09-19T09:03:11;6.63;;;2.53;;
11113;SDS011;5610;52.154;9.198;2023-09-19T09:05:59;8.40;;;2.80;;
11113;SDS011;5610;52.154;9.198;2023-09-19T09:08:45;7.90;;;3.23;;
11113;SDS011;5610;52.154;9.198;2023-09-19T09:11:31;7.30;;;3.10;;
11113;SDS011;5610;52.154;9.198;2023-09-19T09:14:17;5.70;;;2.80;;
11113;SDS011;5610;52.154;9.198;2023-09-19T09:17:06;7.90;;;2.80;;
11113;SDS011;5610;52.154;9.198;2023-09-19T09:19:51;9.07;;;2.97;;
11113;SDS011;5610;52.154;9.198;2023-09-19T09:22:37;9.00;;;3.17;;
11113;SDS011;5610;52.154;9.198;2023-09-19T09:28:44;5.90;;;2.50;;
11113;SDS011;5610;52.154;9.198;2023-09-19T09:31:31;8.97;;;3.00;;
11113;SDS011;5610;52.154;9.198;2023-09-19T09:34:18;11.43;;;3.10;;
11113;SDS011;5610;52.154;9.198;2023-09-19T09:37:04;8.33;;;3.90;;
11113;SDS011;5610;52.154;9.198;2023-09-19T09:39:50;9.60;;;3.40;;
11113;SDS011;5610;52.154;9.198;2023-09-19T09:42:38;5.60;;;2.33;;
11113;SDS011;5610;52.154;9.198;2023-09-19T09:45:24;7.77;;;2.70;;
11113;SDS011;5610;52.154;9.198;2023-09-19T09:48:23;5.83;;;3.13;;
11113;SDS011;5610;52.154;9.198;2023-09-19T09:51:17;9.63;;;3.47;;
11113;SDS011;5610;52.154;9.198;2023-09-19T09:54:15;11.50;;;3.20;;
11113;SDS011;5610;52.154;9.198;2023-09-19T09:57:04;7.03;;;3.17;;
11113;SDS011;5610;52.154;9.198;2023-09-19T10:00:01;9.40;;;2.80;;
11113;SDS011;5610;52.154;9.198;2023-09-19T10:03:00;7.60;;;3.50;;
11113;SDS011;5610;52.154;9.198;2023-09-19T10:05:45;6.30;;;2.70;;
11113;SDS011;5610;52.154;9.198;2023-09-19T10:08:32;6.00;;;2.20;;
11113;SDS011;5610;52.154;9.198;2023-09-19T10:11:19;6.33;;;2.77;;
11113;SDS011;5610;52.154;9.198;2023-09-19T10:14:15;6.63;;;2.90;;
11113;SDS011;5610;52.154;9.198;2023-09-19T10:17:02;10.63;;;3.70;;
11113;SDS011;5610;52.154;9.198;2023-09-19T10:19:52;5.80;;;3.10;;
11113;SDS011;5610;52.154;9.198;2023-09-19T10:22:41;7.70;;;2.73;;
11113;SDS011;5610;52.154;9.198;2023-09-19T10:25:28;5.77;;;3.07;;
11113;SDS011;5610;52.154;9.198;2023-09-19T10:28:15;7.90;;;2.70;;
11113;SDS011;5610;52.154;9.198;2023-09-19T10:31:05;11.20;;;3.37;;
11113;SDS011;5610;52.154;9.198;2023-09-19T10:33:53;7.60;;;3.20;;
11113;SDS011;5610;52.154;9.198;2023-09-19T10:36:40;7.27;;;3.27;;
11113;SDS011;5610;52.154;9.198;2023-09-19T10:39:30;11.07;;;3.10;;
11113;SDS011;5610;52.154;9.198;2023-09-19T10:42:19;9.23;;;3.37;;
11113;SDS011;5610;52.154;9.198;2023-09-19T10:45:05;10.20;;;2.83;;
11113;SDS011;5610;52.154;9.198;2023-09-19T10:47:56;7.80;;;2.83;;
11113;SDS011;5610;52.154;9.198;2023-09-19T10:50:43;8.73;;;2.90;;
11113;SDS011;5610;52.154;9.198;2023-09-19T10:53:38;6.47;;;3.43;;
11113;SDS011;5610;52.154;9.198;2023-09-19T10:56:29;6.87;;;2.47;;
11113;SDS011;5610;52.154;9.198;2023-09-19T10:59:22;6.47;;;2.67;;
11113;SDS011;5610;52.154;9.198;2023-09-19T11:02:16;6.40;;;2.97;;
11113;SDS011;5610;52.154;9.198;2023-09-19T11:05:10;6.17;;;3.10;;
11113;SDS011;5610;52.154;9.198;2023-09-19T11:07:57;8.70;;;3.10;;
11113;SDS011;5610;52.154;9.198;2023-09-19T11:10:46;8.07;;;2.90;;
11113;SDS011;5610;52.154;9.198;2023-09-19T11:13:32;5.83;;;2.80;;
11113;SDS011;5610;52.154;9.198;2023-09-19T11:16:22;5.43;;;2.37;;
11113;SDS011;5610;52.154;9.198;2023-09-19T11:19:07;5.67;;;2.93;;
11113;SDS011;5610;52.154;9.198;2023-09-19T11:21:54;7.03;;;3.00;;
11113;SDS011;5610;52.154;9.198;2023-09-19T11:24:39;6.80;;;2.80;;
11113;SDS011;5610;52.154;9.198;2023-09-19T11:27:25;5.17;;;2.20;;
11113;SDS011;5610;52.154;9.198;2023-09-19T11:30:27;8.70;;;3.27;;
11113;SDS011;5610;52.154;9.198;2023-09-19T11:33:17;7.70;;;3.20;;
11113;SDS011;5610;52.154;9.198;2023-09-19T11:36:05;4.30;;;2.70;;
11113;SDS011;5610;52.154;9.198;2023-09-19T11:38:58;6.00;;;2.90;;
11113;SDS011;5610;52.154;9.198;2023-09-19T11:41:52;6.50;;;3.27;;
11113;SDS011;5610;52.154;9.198;2023-09-19T11:44:39;9.33;;;3.10;;
11113;SDS011;5610;52.154;9.198;2023-09-19T11:47:25;8.87;;;3.00;;
11113;SDS011;5610;52.154;9.198;2023-09-19T11:50:12;4.97;;;2.60;;
11113;SDS011;5610;52.154;9.198;2023-09-19T11:53:04;5.87;;;3.20;;
11113;SDS011;5610;52.154;9.198;2023-09-19T11:55:51;5.83;;;3.20;;
11113;SDS011;5610;52.154;9.198;2023-09-19T11:58:37;6.70;;;2.60;;
11113;SDS011;5610;52.154;9.198;2023-09-19T12:01:23;4.07;;;2.30;;
11113;SDS011;5610;52.154;9.198;2023-09-19T12:04:12;5.17;;;2.73;;
11113;SDS011;5610;52.154;9.198;2023-09-19T12:06:59;4.70;;;2.83;;
11113;SDS011;5610;52.154;9.198;2023-09-19T12:09:45;9.83;;;3.43;;
11113;SDS011;5610;52.154;9.198;2023-09-19T12:12:32;4.53;;;2.50;;
11113;SDS011;5610;52.154;9.198;2023-09-19T12:15:22;6.13;;;2.60;;
11113;SDS011;5610;52.154;9.198;2023-09-19T12:18:25;6.23;;;3.10;;
11113;SDS011;5610;52.154;9.198;2023-09-19T12:21:24;14.73;;;2.70;;
11113;SDS011;5610;52.154;9.198;2023-09-19T12:24:13;5.63;;;2.90;;
11113;SDS011;5610;52.154;9.198;2023-09-19T12:27:00;5.97;;;2.93;;
11113;SDS011;5610;52.154;9.198;2023-09-19T12:29:49;5.47;;;2.67;;
11113;SDS011;5610;52.154;9.198;2023-09-19T12:32:40;7.20;;;2.77;;
11113;SDS011;5610;52.154;9.198;2023-09-19T12:35:28;6.27;;;3.73;;
11113;SDS011;5610;52.154;9.198;2023-09-19T12:38:23;8.20;;;2.93;;
11113;SDS011;5610;52.154;9.198;2023-09-19T12:41:10;5.53;;;2.67;;
11113;SDS011;5610;52.154;9.198;2023-09-19T12:43:55;4.80;;;3.03;;
11113;SDS011;5610;52.154;9.198;2023-09-19T12:46:41;7.27;;;3.27;;
11113;SDS011;5610;52.154;9.198;2023-09-19T12:49:27;5.57;;;2.60;;
11113;SDS011;5610;52.154;9.198;2023-09-19T12:52:12;7.43;;;3.00;;
11113;SDS011;5610;52.154;9.198;2023-09-19T12:54:57;6.87;;;3.40;;
11113;SDS011;5610;52.154;9.198;2023-09-19T12:57:56;7.23;;;3.00;;
11113;SDS011;5610;52.154;9.198;2023-09-19T13:00:43;5.30;;;2.80;;
11113;SDS011;5610;52.154;9.198;2023-09-19T13:03:29;11.70;;;2.87;;
11113;SDS011;5610;52.154;9.198;2023-09-19T13:06:16;5.13;;;2.93;;
11113;SDS011;5610;52.154;9.198;2023-09-19T13:09:07;5.87;;;3.20;;
11113;SDS011;5610;52.154;9.198;2023-09-19T13:11:53;7.47;;;3.10;;
11113;SDS011;5610;52.154;9.198;2023-09-19T13:14:39;5.33;;;3.30;;
11113;SDS011;5610;52.154;9.198;2023-09-19T13:17:41;8.13;;;2.87;;
11113;SDS011;5610;52.154;9.198;2023-09-19T13:20:27;6.20;;;3.40;;
11113;SDS011;5610;52.154;9.198;2023-09-19T13:23:25;4.60;;;2.57;;
11113;SDS011;5610;52.154;9.198;2023-09-19T13:26:11;6.30;;;3.00;;
11113;SDS011;5610;52.154;9.198;2023-09-19T13:28:56;7.17;;;2.93;;
11113;SDS011;5610;52.154;9.198;2023-09-19T13:31:44;5.90;;;2.97;;
11113;SDS011;5610;52.154;9.198;2023-09-19T13:34:30;7.03;;;2.90;;
11113;SDS011;5610;52.154;9.198;2023-09-19T13:37:15;5.40;;;2.70;;
11113;SDS011;5610;52.154;9.198;2023-09-19T13:40:02;5.50;;;2.60;;
11113;SDS011;5610;52.154;9.198;2023-09-19T13:42:49;4.17;;;2.60;;
11113;SDS011;5610;52.154;9.198;2023-09-19T13:45:37;7.83;;;3.10;;
11113;SDS011;5610;52.154;9.198;2023-09-19T13:48:27;8.30;;;3.47;;
11113;SDS011;5610;52.154;9.198;2023-09-19T13:51:14;3.77;;;2.33;;
11113;SDS011;5610;52.154;9.198;2023-09-19T13:53:59;5.77;;;2.87;;
11113;SDS011;5610;52.154;9.198;2023-09-19T13:56:44;7.03;;;3.20;;
11113;SDS011;5610;52.154;9.198;2023-09-19T13:59:29;7.27;;;3.10;;
11113;SDS011;5610;52.154;9.198;2023-09-19T14:02:15;4.97;;;3.17;;
11113;SDS011;5610;52.154;9.198;2023-09-19T14:05:03;5.70;;;2.40;;
11113;SDS011;5610;52.154;9.198;2023-09-19T14:07:50;7.60;;;3.00;;
11113;SDS011;5610;52.154;9.198;2023-09-19T14:10:35;5.70;;;3.13;;
11113;SDS011;5610;52.154;9.198;2023-09-19T14:13:20;4.50;;;2.40;;
11113;SDS011;5610;52.154;9.198;2023-09-19T14:16:05;3.93;;;2.67;;
11113;SDS011;5610;52.154;9.198;2023-09-19T14:18:52;5.70;;;3.23;;
11113;SDS011;5610;52.154;9.198;2023-09-19T14:21:39;7.10;;;3.00;;
11113;SDS011;5610;52.154;9.198;2023-09-19T14:24:24;5.33;;;3.23;;
11113;SDS011;5610;52.154;9.198;2023-09-19T14:27:09;5.03;;;2.90;;
11113;SDS011;5610;52.154;9.198;2023-09-19T14:29:55;5.30;;;2.33;;
11113;SDS011;5610;52.154;9.198;2023-09-19T14:32:40;5.97;;;3.17;;
11113;SDS011;5610;52.154;9.198;2023-09-19T14:35:26;7.03;;;2.50;;
11113;SDS011;5610;52.154;9.198;2023-09-19T14:38:12;7.13;;;2.50;;
11113;SDS011;5610;52.154;9.198;2023-09-19T14:41:01;7.27;;;2.70;;
11113;SDS011;5610;52.154;9.198;2023-09-19T14:43:46;5.50;;;2.47;;
11113;SDS011;5610;52.154;9.198;2023-09-19T14:46:32;5.10;;;2.40;;
11113;SDS011;5610;52.154;9.198;2023-09-19T14:49:17;3.43;;;2.10;;
11113;SDS011;5610;52.154;9.198;2023-09-19T14:52:03;6.37;;;2.50;;
11113;SDS011;5610;52.154;9.198;2023-09-19T14:54:50;3.30;;;2.03;;
11113;SDS011;5610;52.154;9.198;2023-09-19T14:57:35;5.63;;;2.27;;
11113;SDS011;5610;52.154;9.198;2023-09-19T15:00:23;3.70;;;2.33;;
11113;SDS011;5610;52.154;9.198;2023-09-19T15:03:09;4.83;;;2.37;;
11113;SDS011;5610;52.154;9.198;2023-09-19T15:05:58;4.97;;;2.20;;
11113;SDS011;5610;52.154;9.198;2023-09-19T15:08:44;6.80;;;2.30;;
11113;SDS011;5610;52.154;9.198;2023-09-19T15:11:32;4.20;;;2.47;;
11113;SDS011;5610;52.154;9.198;2023-09-19T15:14:17;14.80;;;2.83;;
11113;SDS011;5610;52.154;9.198;2023-09-19T15:17:03;4.00;;;2.03;;
11113;SDS011;5610;52.154;9.198;2023-09-19T15:19:49;4.60;;;2.20;;
11113;SDS011;5610;52.154;9.198;2023-09-19T15:22:34;5.10;;;2.37;;
11113;SDS011;5610;52.154;9.198;2023-09-19T15:25:21;6.63;;;2.20;;
11113;SDS011;5610;52.154;9.198;2023-09-19T15:28:08;4.97;;;2.17;;
11113;SDS011;5610;52.154;9.198;2023-09-19T15:30:57;6.87;;;2.50;;
11113;SDS011;5610;52.154;9.198;2023-09-19T15:33:42;2.90;;;2.03;;
11113;SDS011;5610;52.154;9.198;2023-09-19T15:36:27;3.97;;;2.00;;
11113;SDS011;5610;52.154;9.198;2023-09-19T15:39:13;5.30;;;2.43;;
11113;SDS011;5610;52.154;9.198;2023-09-19T15:41:59;5.97;;;2.20;;
11113;SDS011;5610;52.154;9.198;2023-09-19T15:44:45;6.20;;;2.23;;
11113;SDS011;5610;52.154;9.198;2023-09-19T15:47:33;6.40;;;2.40;;
11113;SDS011;5610;52.154;9.198;2023-09-19T15:50:19;4.17;;;1.93;;
11113;SDS011;5610;52.154;9.198;2023-09-19T15:53:05;4.73;;;2.00;;
11113;SDS011;5610;52.154;9.198;2023-09-19T15:55:50;5.73;;;2.43;;
11113;SDS011;5610;52.154;9.198;2023-09-19T15:58:35;4.10;;;2.37;;
11113;SDS011;5610;52.154;9.198;2023-09-19T16:01:24;4.93;;;2.70;;
11113;SDS011;5610;52.154;9.198;2023-09-19T16:04:10;3.73;;;2.27;;
11113;SDS011;5610;52.154;9.198;2023-09-19T16:06:56;3.90;;;2.57;;
11113;SDS011;5610;52.154;9.198;2023-09-19T16:09:41;3.40;;;2.23;;
11113;SDS011;5610;52.154;9.198;2023-09-19T16:12:26;4.53;;;2.23;;
11113;SDS011;5610;52.154;9.198;2023-09-19T16:15:11;4.80;;;2.07;;
11113;SDS011;5610;52.154;9.198;2023-09-19T16:17:59;4.57;;;2.37;;
11113;SDS011;5610;52.154;9.198;2023-09-19T16:20:46;4.30;;;2.00;;
11113;SDS011;5610;52.154;9.198;2023-09-19T16:23:31;5.37;;;2.80;;
11113;SDS011;5610;52.154;9.198;2023-09-19T16:26:16;4.93;;;2.10;;
11113;SDS011;5610;52.154;9.198;2023-09-19T16:29:04;3.30;;;2.40;;
11113;SDS011;5610;52.154;9.198;2023-09-19T16:31:49;4.33;;;2.43;;
11113;SDS011;5610;52.154;9.198;2023-09-19T16:34:37;5.23;;;2.73;;
11113;SDS011;5610;52.154;9.198;2023-09-19T16:37:22;3.00;;;2.00;;
11113;SDS011;5610;52.154;9.198;2023-09-19T16:40:08;5.93;;;2.80;;
11113;SDS011;5610;52.154;9.198;2023-09-19T16:42:54;5.43;;;2.63;;
11113;SDS011;5610;52.154;9.198;2023-09-19T16:45:39;8.10;;;2.77;;
11113;SDS011;5610;52.154;9.198;2023-09-19T16:48:26;3.83;;;1.97;;
11113;SDS011;5610;52.154;9.198;2023-09-19T16:51:14;5.60;;;2.90;;
11113;SDS011;5610;52.154;9.198;2023-09-19T16:54:00;5.37;;;2.10;;
11113;SDS011;5610;52.154;9.198;2023-09-19T16:56:46;3.40;;;2.07;;
11113;SDS011;5610;52.154;9.198;2023-09-19T16:59:31;4.63;;;2.03;;
11113;SDS011;5610;52.154;9.198;2023-09-19T17:02:16;7.90;;;2.27;;
11113;SDS011;5610;52.154;9.198;2023-09-19T17:05:02;4.23;;;2.10;;